Aérodrome :







RETROUVEZ-NOUS SUR...

 
LOGIN :

S'inscrire | Disclaimer

   EN    FR    IT 

 









Légende :    VFR   VFR Marginal   IFR   IFR Intensif   IFR Très Intensif
Visi : 
Plafond : 
>= 8 km
>= 3000ft
5 à 8 km
1000 à 3000 ft
1500m à 5 km
500 à 1000 ft
800 à 1500m
200 à 500 ft
< 800m
< 200 ft
Symboles :   Orages  Brouillard  Fortes neiges  Fortes précipitations  Vent > 20 kt






- Altitude de l'aérodrome : 56 ft


KRKD - Knox County Regional

DERNIER METAR :
  • 172056Z AUTO 32007KT 10SM CLR M11/M18 A3045 RMK AO2 SLP312 60000 T11111183 53020 FZRANO

METARs EXPIRÉS :
  • 171956Z AUTO 32010G16KT 280V350 10SM CLR M11/M18 A3042 RMK AO2 SLP303 T11111183 FZRANO
  • 171856Z AUTO 31008G17KT 280V350 10SM CLR M11/M18 A3039 RMK AO2 SNE05 SLP294 P0000 T11111178 FZRANO

TAF KRKD
Valide du 17 à 18h jusqu'au 18 à 18h UTC


171720Z 1718/1818 31012G20KT P6SM SKC
FM172200 31009KT P6SM SKC
FM180800 32003KT P6SM SCT200



MET'MAP, la Météo Aéronautique d'un coup d'oeil ! - Copyright ORBIFLY Décembre 2007 - Disclaimer

ORBIFLY MET'MAP TEAM :

Programmation & Développement : Alexandra Zaïnal
Sur une idée originale de : Baudouin d'Aumeries
Assistance à la programmation : Marc-Olivier Méhu
Soutien technique & logistique : Manuel Goepfert

Contact : metmap@orbifly.com




SOURCES & CREDITS :

   NOAA